createdAt,value
2018-05-12T00:00:17.946Z,30.30
2018-05-12T00:01:17.943Z,31.90
2018-05-12T00:02:17.955Z,31.00
2018-05-12T00:03:17.933Z,30.00
2018-05-12T00:04:17.935Z,30.20
2018-05-12T00:05:17.950Z,33.90
2018-05-12T00:06:17.930Z,32.30
2018-05-12T00:07:17.928Z,35.10
2018-05-12T00:08:17.927Z,33.20
2018-05-12T00:09:17.927Z,34.00
2018-05-12T00:10:17.924Z,34.80
2018-05-12T00:11:17.917Z,34.60
2018-05-12T00:12:17.914Z,34.00
2018-05-12T00:13:17.912Z,33.70
2018-05-12T00:14:17.915Z,32.00
2018-05-12T00:15:17.905Z,34.90
2018-05-12T00:16:17.903Z,33.30
2018-05-12T00:17:17.901Z,32.20
2018-05-12T00:18:17.897Z,31.30
2018-05-12T00:19:17.894Z,31.50
2018-05-12T00:20:17.893Z,31.40
2018-05-12T00:21:17.888Z,30.40
2018-05-12T00:22:17.886Z,29.00
2018-05-12T00:23:17.884Z,29.30
2018-05-12T00:24:17.879Z,30.50
2018-05-12T00:25:17.878Z,30.90
2018-05-12T00:26:17.877Z,29.70
2018-05-12T00:27:17.873Z,30.70
2018-05-12T00:28:17.872Z,31.50
2018-05-12T00:29:17.866Z,31.60
2018-05-12T00:30:17.865Z,29.80
2018-05-12T00:31:17.860Z,29.90
2018-05-12T00:32:17.859Z,30.60
2018-05-12T00:33:17.858Z,34.20
2018-05-12T00:34:17.852Z,35.70
2018-05-12T00:35:17.849Z,37.70
2018-05-12T00:36:17.844Z,36.10
2018-05-12T00:37:17.843Z,36.60
2018-05-12T00:38:17.846Z,35.50
2018-05-12T00:39:17.836Z,36.20
2018-05-12T00:40:17.838Z,38.80
2018-05-12T00:41:17.832Z,36.90
2018-05-12T00:42:17.830Z,34.00
2018-05-12T00:43:17.826Z,35.40
2018-05-12T00:44:17.823Z,31.20
2018-05-12T00:45:17.823Z,29.10
2018-05-12T00:46:17.817Z,31.30
2018-05-12T00:47:17.814Z,32.20
2018-05-12T00:48:17.817Z,31.10
2018-05-12T00:49:17.809Z,31.40
2018-05-12T00:50:17.808Z,31.20
2018-05-12T00:51:17.803Z,32.00
2018-05-12T00:52:17.799Z,29.90
2018-05-12T00:53:17.797Z,29.00
2018-05-12T00:54:17.794Z,29.60
2018-05-12T00:55:17.791Z,29.10
2018-05-12T00:56:17.803Z,30.20
2018-05-12T00:57:17.790Z,32.10
2018-05-12T00:58:17.783Z,32.00
2018-05-12T00:59:17.779Z,31.40
2018-05-12T01:00:17.776Z,32.70
2018-05-12T01:01:17.778Z,31.30
2018-05-12T01:02:17.772Z,30.70
2018-05-12T01:03:17.769Z,32.50
2018-05-12T01:04:17.764Z,30.80
2018-05-12T01:05:17.761Z,30.20
2018-05-12T01:06:17.759Z,31.00
2018-05-12T01:07:17.755Z,33.20
2018-05-12T01:08:17.755Z,36.10
2018-05-12T01:09:17.758Z,35.20
2018-05-12T01:10:17.747Z,36.30
2018-05-12T01:11:17.743Z,35.10
2018-05-12T01:12:17.741Z,31.30
2018-05-12T01:13:17.737Z,30.90
2018-05-12T01:14:17.743Z,28.80
2018-05-12T01:15:17.733Z,29.60
2018-05-12T01:16:17.730Z,27.40
2018-05-12T01:17:17.728Z,26.80
2018-05-12T01:18:17.762Z,28.60
2018-05-12T01:19:17.719Z,27.50
2018-05-12T01:20:17.716Z,26.70
2018-05-12T01:21:17.714Z,28.60
2018-05-12T01:22:17.709Z,28.90
2018-05-12T01:23:17.711Z,30.10
2018-05-12T01:24:17.710Z,29.40
2018-05-12T01:25:17.703Z,28.00
2018-05-12T01:26:17.701Z,29.20
2018-05-12T01:27:17.695Z,29.30
2018-05-12T01:28:17.693Z,27.90
2018-05-12T01:29:17.735Z,28.00
2018-05-12T01:30:17.686Z,30.20
2018-05-12T01:31:17.682Z,31.30
2018-05-12T01:32:17.679Z,30.90
2018-05-12T01:33:17.683Z,30.20
2018-05-12T01:34:17.674Z,29.20
2018-05-12T01:35:17.676Z,28.50
2018-05-12T01:36:17.667Z,29.10
2018-05-12T01:37:17.667Z,30.50
2018-05-12T01:38:17.663Z,29.70
2018-05-12T01:39:17.659Z,28.80
2018-05-12T01:40:17.659Z,29.40
2018-05-12T01:41:17.653Z,29.90
2018-05-12T01:42:17.648Z,28.30
2018-05-12T01:43:17.645Z,26.50
2018-05-12T01:44:17.643Z,26.80
2018-05-12T01:45:17.644Z,26.60
2018-05-12T01:46:17.638Z,27.90
2018-05-12T01:47:17.633Z,27.30
2018-05-12T01:48:17.630Z,28.20
2018-05-12T01:49:17.629Z,29.40
2018-05-12T01:50:17.624Z,29.60
2018-05-12T01:51:17.627Z,27.70
2018-05-12T01:52:17.618Z,27.70
2018-05-12T01:53:17.620Z,30.40
2018-05-12T01:54:17.612Z,28.60
2018-05-12T01:55:17.605Z,28.70
2018-05-12T01:56:17.605Z,31.00
2018-05-12T01:57:17.601Z,29.60
2018-05-12T01:58:17.603Z,31.50
2018-05-12T01:59:17.600Z,34.20
2018-05-12T02:00:17.591Z,29.30
2018-05-12T02:01:17.589Z,30.30
2018-05-12T02:02:17.587Z,32.40
2018-05-12T02:03:17.587Z,31.90
2018-05-12T02:04:17.581Z,30.70
2018-05-12T02:05:17.575Z,26.90
2018-05-12T02:06:17.573Z,25.90
2018-05-12T02:07:17.574Z,26.50
2018-05-12T02:08:17.570Z,25.50
2018-05-12T02:09:17.564Z,27.70
2018-05-12T02:10:17.565Z,29.70
2018-05-12T02:11:17.556Z,26.90
2018-05-12T02:12:17.555Z,26.70
2018-05-12T02:13:17.550Z,27.50
2018-05-12T02:14:17.548Z,26.40
2018-05-12T02:15:17.548Z,26.90
2018-05-12T02:16:17.539Z,27.10
2018-05-12T02:17:17.537Z,28.30
2018-05-12T02:18:17.539Z,27.10
2018-05-12T02:19:17.529Z,26.50
2018-05-12T02:20:17.528Z,27.60
2018-05-12T02:21:17.524Z,25.70
2018-05-12T02:22:17.525Z,27.30
2018-05-12T02:23:17.517Z,29.60
2018-05-12T02:24:17.512Z,28.30
2018-05-12T02:25:17.512Z,32.90
2018-05-12T02:26:17.509Z,32.30
2018-05-12T02:27:17.502Z,29.80
2018-05-12T02:28:17.500Z,27.70
2018-05-12T02:29:17.497Z,27.20
2018-05-12T02:30:17.510Z,27.60
2018-05-12T02:31:17.491Z,26.90
2018-05-12T02:32:17.490Z,27.30
2018-05-12T02:33:17.485Z,26.80
2018-05-12T02:34:17.483Z,27.80
2018-05-12T02:35:17.478Z,28.60
2018-05-12T02:36:17.475Z,28.30
2018-05-12T02:37:17.470Z,27.10
2018-05-12T02:38:17.471Z,29.10
2018-05-12T02:39:17.462Z,28.20
2018-05-12T02:40:17.461Z,28.10
2018-05-12T02:41:17.460Z,28.30
2018-05-12T02:42:17.481Z,27.90
2018-05-12T02:43:17.450Z,27.40
2018-05-12T02:44:17.447Z,27.00
2018-05-12T02:45:17.445Z,26.70
2018-05-12T02:46:17.442Z,29.30
2018-05-12T02:47:17.440Z,27.10
2018-05-12T02:48:17.440Z,26.10
2018-05-12T02:49:17.433Z,28.20
2018-05-12T02:50:17.430Z,27.90
2018-05-12T02:51:17.425Z,26.10
2018-05-12T02:52:17.420Z,27.10
2018-05-12T02:53:17.417Z,26.10
2018-05-12T02:54:17.415Z,26.10
2018-05-12T02:55:17.410Z,25.80
2018-05-12T02:56:17.407Z,27.40
2018-05-12T02:57:17.410Z,25.70
2018-05-12T02:58:17.403Z,25.70
2018-05-12T02:59:17.397Z,26.90
2018-05-12T03:00:17.395Z,26.80
2018-05-12T03:01:17.392Z,28.60
2018-05-12T03:02:17.392Z,28.70
2018-05-12T03:03:17.386Z,29.80
2018-05-12T03:04:17.381Z,29.00
2018-05-12T03:05:17.385Z,30.50
2018-05-12T03:06:17.377Z,30.80
2018-05-12T03:07:17.373Z,26.70
2018-05-12T03:08:17.370Z,25.90
2018-05-12T03:09:17.369Z,26.20
2018-05-12T03:10:17.365Z,27.70
2018-05-12T03:11:17.360Z,25.40
2018-05-12T03:12:17.357Z,25.00
2018-05-12T03:13:17.353Z,26.60
2018-05-12T03:14:17.351Z,27.30
2018-05-12T03:15:17.348Z,27.50
2018-05-12T03:16:17.344Z,28.80
2018-05-12T03:17:17.341Z,27.80
2018-05-12T03:18:17.338Z,28.40
2018-05-12T03:19:17.335Z,26.80
2018-05-12T03:20:17.340Z,25.10
2018-05-12T03:21:17.330Z,25.80
2018-05-12T03:22:17.322Z,25.50
2018-05-12T03:23:17.321Z,24.60
2018-05-12T03:24:17.320Z,26.70
2018-05-12T03:25:17.316Z,27.40
2018-05-12T03:26:17.314Z,26.10
2018-05-12T03:27:17.312Z,25.60
2018-05-12T03:28:17.308Z,26.40
2018-05-12T03:29:17.305Z,26.10
2018-05-12T03:30:17.392Z,26.80
2018-05-12T03:31:17.303Z,25.40
2018-05-12T03:32:17.297Z,25.50
2018-05-12T03:33:17.294Z,27.30
2018-05-12T03:34:17.294Z,27.50
2018-05-12T03:35:17.288Z,25.20
2018-05-12T03:36:17.281Z,25.60
2018-05-12T03:37:17.284Z,25.10
2018-05-12T03:38:17.284Z,25.40
2018-05-12T03:39:17.280Z,26.10
2018-05-12T03:40:17.279Z,28.60
2018-05-12T03:41:17.276Z,28.10
2018-05-12T03:42:17.267Z,31.90
2018-05-12T03:43:17.266Z,31.30
2018-05-12T03:44:17.262Z,31.80
2018-05-12T03:45:17.260Z,32.10
2018-05-12T03:46:17.260Z,27.70
2018-05-12T03:47:17.251Z,28.80
2018-05-12T03:48:17.255Z,30.70
2018-05-12T03:49:17.250Z,30.50
2018-05-12T03:50:17.245Z,30.70
2018-05-12T03:51:17.243Z,29.30
2018-05-12T03:52:17.243Z,29.40
2018-05-12T03:53:17.238Z,29.10
2018-05-12T03:54:17.237Z,28.70
2018-05-12T03:55:17.232Z,31.10
2018-05-12T03:56:17.234Z,31.40
2018-05-12T03:57:17.231Z,32.40
2018-05-12T03:58:17.226Z,34.20
2018-05-12T03:59:17.226Z,31.50
2018-05-12T04:00:17.224Z,34.40
2018-05-12T04:01:17.226Z,32.70
2018-05-12T04:02:17.217Z,32.30
2018-05-12T04:03:17.211Z,33.30
2018-05-12T04:04:17.210Z,32.60
2018-05-12T04:05:17.205Z,32.10
2018-05-12T04:06:17.204Z,32.70
2018-05-12T04:07:17.201Z,33.20
2018-05-12T04:08:17.199Z,34.40
2018-05-12T04:09:17.197Z,33.40
2018-05-12T04:10:17.195Z,33.90
2018-05-12T04:11:17.194Z,33.60
2018-05-12T04:12:17.185Z,33.30
2018-05-12T04:13:17.185Z,35.10
2018-05-12T04:14:17.182Z,35.00
2018-05-12T04:15:17.181Z,36.10
2018-05-12T04:16:17.177Z,35.60
2018-05-12T04:17:17.175Z,36.00
2018-05-12T04:18:17.176Z,35.90
2018-05-12T04:19:17.171Z,35.60
2018-05-12T04:20:17.171Z,35.10
2018-05-12T04:21:17.164Z,36.10
2018-05-12T04:22:17.162Z,35.50
2018-05-12T04:23:17.164Z,35.40
2018-05-12T04:24:17.173Z,35.70
2018-05-12T04:25:17.156Z,35.40
2018-05-12T04:26:17.153Z,34.00
2018-05-12T04:27:17.149Z,34.70
2018-05-12T04:28:17.146Z,34.00
2018-05-12T04:29:17.148Z,34.60
2018-05-12T04:30:17.142Z,33.30
2018-05-12T04:31:17.139Z,34.20
2018-05-12T04:32:17.135Z,32.90
2018-05-12T04:33:17.136Z,33.40
2018-05-12T04:34:17.129Z,33.30
2018-05-12T04:35:17.127Z,33.50
2018-05-12T04:36:17.122Z,32.90
2018-05-12T04:37:17.128Z,33.90
2018-05-12T04:38:17.119Z,34.00
2018-05-12T04:39:17.116Z,32.90
2018-05-12T04:40:17.115Z,33.30
2018-05-12T04:41:17.112Z,32.70
2018-05-12T04:42:17.109Z,33.40
2018-05-12T04:43:17.157Z,31.30
2018-05-12T04:44:17.104Z,33.10
2018-05-12T04:45:17.101Z,30.20
2018-05-12T04:46:17.099Z,29.20
2018-05-12T04:47:17.097Z,32.00
2018-05-12T04:48:17.098Z,30.50
2018-05-12T04:49:17.096Z,27.00
2018-05-12T04:50:17.090Z,27.00
2018-05-12T04:51:17.087Z,27.00
2018-05-12T04:52:17.086Z,24.20
2018-05-12T04:53:17.082Z,25.30
2018-05-12T04:54:17.138Z,26.20
2018-05-12T04:55:17.079Z,25.80
2018-05-12T04:56:17.073Z,27.50
2018-05-12T04:57:17.074Z,25.80
2018-05-12T04:58:17.071Z,25.00
2018-05-12T04:59:17.068Z,25.30
2018-05-12T05:00:17.067Z,24.50
2018-05-12T05:01:17.068Z,25.60
2018-05-12T05:02:17.064Z,25.30
2018-05-12T05:03:17.062Z,25.50
2018-05-12T05:04:17.060Z,24.50
2018-05-12T05:05:17.066Z,24.40
2018-05-12T05:06:17.057Z,23.90
2018-05-12T05:07:17.052Z,24.20
2018-05-12T05:08:17.097Z,23.90
2018-05-12T05:09:17.052Z,23.70
2018-05-12T05:10:17.049Z,23.70
2018-05-12T05:11:17.047Z,24.10
2018-05-12T05:12:17.047Z,24.00
2018-05-12T05:13:17.052Z,23.60
2018-05-12T05:14:17.045Z,25.30
2018-05-12T05:15:17.074Z,25.60
2018-05-12T05:16:17.043Z,25.00
2018-05-12T05:17:17.041Z,22.70
2018-05-12T05:18:17.042Z,23.60
2018-05-12T05:19:17.042Z,22.20
2018-05-12T05:20:17.036Z,21.70
2018-05-12T05:21:17.140Z,21.60
2018-05-12T05:22:17.036Z,21.90
2018-05-12T05:23:17.035Z,22.00
2018-05-12T05:24:17.035Z,20.70
2018-05-12T05:25:17.042Z,20.40
2018-05-12T05:26:17.034Z,22.50
2018-05-12T05:27:17.032Z,22.70
2018-05-12T05:28:17.033Z,22.80
2018-05-12T05:29:17.033Z,21.80
2018-05-12T05:30:17.033Z,23.50
2018-05-12T05:31:17.032Z,22.70
2018-05-12T05:32:17.032Z,21.80
2018-05-12T05:33:17.032Z,22.40
2018-05-12T05:34:17.032Z,24.50
2018-05-12T05:35:17.068Z,24.00
2018-05-12T05:36:17.039Z,23.40
2018-05-12T05:37:17.033Z,23.20
2018-05-12T05:38:17.033Z,24.40
2018-05-12T05:39:17.034Z,23.60
2018-05-12T05:40:17.036Z,24.10
2018-05-12T05:41:17.038Z,22.30
2018-05-12T05:42:17.038Z,23.50
2018-05-12T05:43:17.035Z,22.10
2018-05-12T05:44:17.035Z,23.20
2018-05-12T05:45:17.040Z,23.00
2018-05-12T05:46:17.037Z,23.80
2018-05-12T05:47:17.038Z,24.40
2018-05-12T05:48:17.040Z,24.40
2018-05-12T05:49:17.042Z,24.30
2018-05-12T05:50:17.055Z,24.80
2018-05-12T05:51:17.042Z,24.20
2018-05-12T05:52:17.049Z,24.30
2018-05-12T05:53:17.046Z,24.00
2018-05-12T05:54:17.046Z,23.80
2018-05-12T05:55:17.047Z,25.00
2018-05-12T05:56:17.048Z,24.30
2018-05-12T05:57:17.049Z,25.80
2018-05-12T05:58:17.060Z,26.20
2018-05-12T05:59:17.073Z,26.20
2018-05-12T06:00:17.052Z,24.40
2018-05-12T06:01:17.056Z,25.30
2018-05-12T06:02:17.053Z,24.10
2018-05-12T06:03:17.056Z,23.70
2018-05-12T06:04:17.056Z,25.50
2018-05-12T06:05:17.057Z,24.70
2018-05-12T06:06:17.066Z,24.30
2018-05-12T06:07:17.061Z,23.50
2018-05-12T06:08:17.062Z,21.80
2018-05-12T06:09:17.063Z,21.70
2018-05-12T06:10:17.067Z,23.20
2018-05-12T06:11:17.064Z,24.30
2018-05-12T06:12:17.069Z,23.80
2018-05-12T06:13:17.070Z,25.90
2018-05-12T06:14:17.071Z,24.00
2018-05-12T06:15:17.073Z,24.30
2018-05-12T06:16:17.074Z,24.30
2018-05-12T06:17:17.085Z,24.10
2018-05-12T06:18:17.078Z,24.60
2018-05-12T06:19:17.078Z,26.10
2018-05-12T06:20:17.081Z,25.30
2018-05-12T06:21:17.085Z,23.60
2018-05-12T06:22:17.086Z,23.90
2018-05-12T06:23:17.095Z,23.70
2018-05-12T06:24:17.100Z,22.90
2018-05-12T06:25:17.095Z,24.00
2018-05-12T06:26:17.091Z,24.30
2018-05-12T06:27:17.097Z,24.00
2018-05-12T06:28:17.100Z,23.90
2018-05-12T06:29:17.101Z,23.80
2018-05-12T06:30:17.106Z,24.00
2018-05-12T06:31:17.107Z,24.30
2018-05-12T06:32:17.109Z,23.40
2018-05-12T06:33:17.113Z,23.10
2018-05-12T06:34:17.115Z,24.10
2018-05-12T06:35:17.119Z,26.30
2018-05-12T06:36:17.131Z,26.80
2018-05-12T06:37:17.128Z,26.80
2018-05-12T06:38:17.129Z,26.20
2018-05-12T06:39:17.136Z,26.90
2018-05-12T06:40:17.136Z,25.40
2018-05-12T06:41:17.138Z,26.80
2018-05-12T06:42:17.147Z,26.30
2018-05-12T06:43:17.146Z,26.60
2018-05-12T06:44:17.143Z,26.80
2018-05-12T06:45:17.151Z,26.40
2018-05-12T06:46:17.155Z,26.40
2018-05-12T06:47:17.160Z,26.80
2018-05-12T06:48:17.167Z,25.40
2018-05-12T06:49:17.165Z,26.40
2018-05-12T06:50:17.169Z,26.10
2018-05-12T06:51:17.175Z,26.20
2018-05-12T06:52:17.176Z,25.70
2018-05-12T06:53:17.180Z,25.80
2018-05-12T06:54:17.184Z,26.20
2018-05-12T06:55:17.187Z,26.30
2018-05-12T06:56:17.189Z,25.50
2018-05-12T06:57:17.196Z,25.10
2018-05-12T06:58:17.202Z,26.70
2018-05-12T06:59:17.204Z,25.60
2018-05-12T07:00:17.214Z,26.00
2018-05-12T07:01:17.244Z,25.20
2018-05-12T07:02:17.212Z,26.00
2018-05-12T07:03:17.223Z,25.90
2018-05-12T07:04:17.226Z,27.50
2018-05-12T07:05:17.225Z,29.10
2018-05-12T07:06:17.229Z,28.50
2018-05-12T07:07:17.233Z,27.30
2018-05-12T07:08:17.240Z,28.90
2018-05-12T07:09:17.241Z,29.50
2018-05-12T07:10:17.247Z,28.10
2018-05-12T07:11:17.249Z,27.70
2018-05-12T07:12:17.300Z,28.60
2018-05-12T07:13:17.258Z,29.60
2018-05-12T07:14:17.269Z,28.70
2018-05-12T07:15:17.267Z,29.00
2018-05-12T07:16:17.272Z,29.70
2018-05-12T07:17:17.280Z,29.90
2018-05-12T07:18:17.285Z,30.80
2018-05-12T07:19:17.286Z,29.90
2018-05-12T07:20:17.289Z,29.90
2018-05-12T07:21:17.294Z,30.20
2018-05-12T07:22:17.301Z,31.40
2018-05-12T07:23:17.306Z,30.00
2018-05-12T07:24:17.307Z,31.60
2018-05-12T07:25:17.313Z,30.90
2018-05-12T07:26:17.321Z,31.20
2018-05-12T07:27:17.322Z,31.10
2018-05-12T07:28:17.325Z,30.30
2018-05-12T07:29:17.335Z,29.90
2018-05-12T07:30:17.335Z,31.20
2018-05-12T07:31:17.336Z,30.20
2018-05-12T07:32:17.343Z,31.00
2018-05-12T07:33:17.346Z,29.70
2018-05-12T07:34:17.352Z,29.40
2018-05-12T07:35:17.355Z,28.60
2018-05-12T07:36:17.361Z,28.60
2018-05-12T07:37:17.369Z,28.70
2018-05-12T07:38:17.374Z,27.40
2018-05-12T07:39:17.376Z,27.90
2018-05-12T07:40:17.382Z,29.30
2018-05-12T07:41:17.386Z,29.40
2018-05-12T07:42:17.392Z,28.50
2018-05-12T07:43:17.394Z,28.80
2018-05-12T07:44:17.401Z,27.70
2018-05-12T07:45:17.405Z,27.10
2018-05-12T07:46:17.410Z,27.80
2018-05-12T07:47:17.416Z,26.80
2018-05-12T07:48:17.420Z,26.80
2018-05-12T07:49:17.426Z,27.20
2018-05-12T07:50:17.431Z,27.10
2018-05-12T07:51:17.432Z,25.90
2018-05-12T07:52:17.449Z,25.50
2018-05-12T07:53:17.451Z,24.40
2018-05-12T07:54:17.461Z,25.00
2018-05-12T07:55:17.462Z,24.40
2018-05-12T07:56:17.476Z,24.40
2018-05-12T07:57:17.475Z,25.30
2018-05-12T07:58:17.486Z,26.00
2018-05-12T07:59:17.484Z,27.20
2018-05-12T08:00:17.492Z,25.50
2018-05-12T08:01:17.497Z,25.50
2018-05-12T08:02:17.504Z,25.40
2018-05-12T08:03:17.509Z,26.30
2018-05-12T08:04:17.516Z,25.80
2018-05-12T08:05:17.522Z,25.70
2018-05-12T08:06:17.527Z,25.80
2018-05-12T08:07:17.539Z,26.20
2018-05-12T08:08:17.539Z,26.50
2018-05-12T08:09:17.542Z,25.80
2018-05-12T08:10:17.551Z,26.20
2018-05-12T08:11:17.554Z,28.40
2018-05-12T08:12:17.560Z,26.30
2018-05-12T08:13:17.566Z,26.60
2018-05-12T08:14:17.572Z,26.90
2018-05-12T08:15:17.578Z,26.40
2018-05-12T08:16:17.584Z,25.90
2018-05-12T08:17:17.590Z,26.10
2018-05-12T08:18:17.596Z,25.40
2018-05-12T08:19:17.602Z,25.50
2018-05-12T08:20:17.609Z,24.80
2018-05-12T08:21:17.615Z,25.70
2018-05-12T08:22:17.685Z,24.90
2018-05-12T08:23:17.621Z,25.80
2018-05-12T08:24:17.635Z,25.20
2018-05-12T08:25:17.635Z,25.20
2018-05-12T08:26:17.639Z,24.20
2018-05-12T08:27:17.649Z,22.90
2018-05-12T08:28:17.649Z,23.60
2018-05-12T08:29:17.661Z,24.20
2018-05-12T08:30:17.662Z,23.40
2018-05-12T08:31:17.666Z,24.20
2018-05-12T08:32:17.672Z,23.70
2018-05-12T08:33:17.679Z,23.30
2018-05-12T08:34:17.684Z,23.20
2018-05-12T08:35:17.695Z,22.70
2018-05-12T08:36:17.697Z,22.10
2018-05-12T08:37:17.704Z,23.50
2018-05-12T08:38:17.712Z,23.00
2018-05-12T08:39:17.714Z,23.60
2018-05-12T08:40:17.753Z,23.80
2018-05-12T08:41:17.725Z,23.70
2018-05-12T08:42:17.730Z,24.30
2018-05-12T08:43:17.737Z,23.60
2018-05-12T08:44:17.742Z,23.60
2018-05-12T08:45:17.746Z,24.30
2018-05-12T08:46:17.753Z,23.70
2018-05-12T08:47:17.758Z,24.50
2018-05-12T08:48:17.772Z,25.30
2018-05-12T08:49:17.768Z,25.30
2018-05-12T08:50:17.776Z,25.00
2018-05-12T08:51:17.778Z,25.90
2018-05-12T08:52:17.783Z,24.30
2018-05-12T08:53:17.790Z,24.50
2018-05-12T08:54:17.795Z,24.60
2018-05-12T08:55:17.899Z,24.70
2018-05-12T08:56:17.804Z,24.30
2018-05-12T08:57:17.808Z,24.70
2018-05-12T08:58:17.814Z,23.80
2018-05-12T08:59:17.816Z,23.30
2018-05-12T09:00:17.822Z,22.80
2018-05-12T09:01:17.826Z,24.50
2018-05-12T09:02:17.833Z,23.50
2018-05-12T09:03:17.834Z,24.90
2018-05-12T09:04:17.837Z,24.80
2018-05-12T09:05:17.842Z,24.80
2018-05-12T09:06:17.846Z,23.90
2018-05-12T09:07:17.900Z,23.80
2018-05-12T09:08:17.855Z,23.00
2018-05-12T09:09:17.860Z,22.90
2018-05-12T09:10:17.866Z,23.80
2018-05-12T09:11:17.872Z,22.70
2018-05-12T09:12:17.870Z,21.70
2018-05-12T09:13:17.873Z,21.70
2018-05-12T09:14:17.878Z,21.60
2018-05-12T09:15:17.880Z,21.20
2018-05-12T09:16:17.882Z,21.40
2018-05-12T09:17:17.887Z,21.10
2018-05-12T09:18:17.897Z,19.30
2018-05-12T09:19:17.922Z,19.40
2018-05-12T09:20:17.900Z,19.50
2018-05-12T09:21:17.901Z,18.80
2018-05-12T09:22:17.906Z,19.30
2018-05-12T09:23:17.909Z,18.50
2018-05-12T09:24:17.913Z,18.80
2018-05-12T09:25:17.917Z,18.60
2018-05-12T09:26:17.920Z,17.90
2018-05-12T09:27:17.923Z,18.60
2018-05-12T09:28:17.929Z,19.10
2018-05-12T09:29:17.935Z,19.70
2018-05-12T09:30:17.943Z,19.80
2018-05-12T09:31:17.940Z,19.20
2018-05-12T09:32:17.944Z,19.10
2018-05-12T09:33:17.948Z,19.60
2018-05-12T09:34:17.952Z,19.30
2018-05-12T09:35:17.957Z,18.20
2018-05-12T09:36:17.960Z,18.30
2018-05-12T09:37:18.003Z,18.40
2018-05-12T09:38:17.967Z,19.20
2018-05-12T09:39:17.970Z,18.40
2018-05-12T09:40:17.991Z,18.40
2018-05-12T09:41:17.979Z,18.10
2018-05-12T09:42:18.037Z,18.50
2018-05-12T09:43:18.017Z,18.40
2018-05-12T09:44:17.991Z,18.40
2018-05-12T09:45:17.999Z,17.90
2018-05-12T09:46:17.999Z,18.20
2018-05-12T09:47:18.013Z,17.60
2018-05-12T09:48:18.010Z,17.40
2018-05-12T09:49:18.008Z,17.70
2018-05-12T09:50:18.013Z,17.20
2018-05-12T09:51:18.019Z,17.50
2018-05-12T09:52:18.026Z,18.20
2018-05-12T09:53:18.021Z,18.50
2018-05-12T09:54:18.027Z,17.00
2018-05-12T09:55:18.035Z,17.00
2018-05-12T09:56:18.038Z,17.80
2018-05-12T09:57:18.039Z,18.70
2018-05-12T09:58:18.042Z,18.00
2018-05-12T09:59:18.045Z,17.90
2018-05-12T10:00:18.048Z,18.00
2018-05-12T10:01:18.053Z,18.30
2018-05-12T10:02:18.055Z,17.90
2018-05-12T10:03:18.064Z,17.90
2018-05-12T10:04:18.064Z,18.10
2018-05-12T10:05:18.070Z,18.20
2018-05-12T10:06:18.069Z,17.60
2018-05-12T10:07:18.070Z,17.20
2018-05-12T10:08:18.076Z,17.60
2018-05-12T10:09:18.079Z,16.90
2018-05-12T10:10:18.086Z,16.70
2018-05-12T10:11:18.096Z,17.20
2018-05-12T10:12:18.088Z,17.40
2018-05-12T10:13:18.092Z,18.10
2018-05-12T10:14:18.092Z,17.70
2018-05-12T10:15:18.097Z,17.60
2018-05-12T10:16:18.100Z,17.40
2018-05-12T10:17:18.110Z,17.00
2018-05-12T10:18:18.110Z,17.40
2018-05-12T10:19:18.141Z,17.70
2018-05-12T10:20:18.118Z,17.80
2018-05-12T10:21:18.118Z,17.30
2018-05-12T10:22:18.121Z,17.20
2018-05-12T10:23:18.121Z,16.90
2018-05-12T10:24:18.127Z,17.40
2018-05-12T10:25:18.133Z,16.90
2018-05-12T10:26:18.149Z,16.80
2018-05-12T10:27:18.140Z,16.90
2018-05-12T10:28:18.145Z,16.40
2018-05-12T10:29:18.143Z,16.60
2018-05-12T10:30:18.147Z,16.90
2018-05-12T10:31:18.148Z,17.60
2018-05-12T10:32:18.157Z,16.70
2018-05-12T10:33:18.154Z,16.80
2018-05-12T10:34:18.160Z,18.10
2018-05-12T10:35:18.163Z,16.80
2018-05-12T10:36:18.165Z,16.80
2018-05-12T10:37:18.168Z,16.70
2018-05-12T10:38:18.175Z,16.00
2018-05-12T10:39:18.175Z,15.60
2018-05-12T10:40:18.180Z,15.30
2018-05-12T10:41:18.183Z,16.20
2018-05-12T10:42:18.187Z,14.90
2018-05-12T10:43:18.189Z,14.60
2018-05-12T10:44:18.195Z,15.10
2018-05-12T10:45:18.266Z,14.50
2018-05-12T10:46:18.207Z,14.90
2018-05-12T10:47:18.204Z,14.40
2018-05-12T10:48:18.206Z,14.20
2018-05-12T10:49:18.210Z,16.00
2018-05-12T10:50:18.218Z,15.60
2018-05-12T10:51:18.217Z,16.00
2018-05-12T10:52:18.219Z,16.00
2018-05-12T10:53:18.226Z,15.80
2018-05-12T10:54:18.228Z,15.50
2018-05-12T10:55:18.229Z,15.90
2018-05-12T10:56:18.233Z,15.50
2018-05-12T10:57:18.237Z,15.00
2018-05-12T10:58:18.243Z,15.60
2018-05-12T10:59:18.241Z,14.60
2018-05-12T11:00:18.249Z,15.40
2018-05-12T11:01:18.250Z,14.10
2018-05-12T11:02:18.255Z,14.60
2018-05-12T11:03:18.256Z,14.30
2018-05-12T11:04:18.260Z,14.40
2018-05-12T11:05:18.265Z,14.40
2018-05-12T11:06:18.261Z,14.20
2018-05-12T11:07:18.268Z,13.60
2018-05-12T11:08:18.272Z,14.80
2018-05-12T11:09:18.277Z,15.30
2018-05-12T11:10:18.282Z,15.70
2018-05-12T11:11:18.284Z,14.30
2018-05-12T11:12:18.286Z,14.10
2018-05-12T11:13:18.292Z,14.40
2018-05-12T11:14:18.293Z,14.60
2018-05-12T11:15:18.295Z,14.10
2018-05-12T11:16:18.297Z,14.40
2018-05-12T11:17:18.310Z,14.60
2018-05-12T11:18:18.307Z,14.70
2018-05-12T11:19:18.309Z,14.70
2018-05-12T11:20:18.396Z,14.70
2018-05-12T11:21:18.326Z,14.60
2018-05-12T11:22:18.323Z,14.20
2018-05-12T11:23:18.325Z,14.00
2018-05-12T11:24:18.328Z,14.00
2018-05-12T11:25:18.328Z,14.10
2018-05-12T11:26:18.344Z,14.20
2018-05-12T11:27:18.341Z,14.70
2018-05-12T11:28:18.343Z,13.80
2018-05-12T11:29:18.348Z,13.70
2018-05-12T11:30:18.352Z,14.20
2018-05-12T11:31:18.355Z,14.20
2018-05-12T11:32:18.376Z,14.20
2018-05-12T11:33:18.362Z,14.20
2018-05-12T11:34:18.369Z,13.70
2018-05-12T11:35:18.374Z,14.00
2018-05-12T11:36:18.379Z,13.70
2018-05-12T11:37:18.379Z,13.40
2018-05-12T11:38:18.382Z,13.40
2018-05-12T11:39:18.384Z,14.10
2018-05-12T11:40:18.394Z,14.60
2018-05-12T11:41:18.398Z,14.00
2018-05-12T11:42:18.407Z,14.50
2018-05-12T11:43:18.404Z,13.40
2018-05-12T11:44:18.406Z,14.10
2018-05-12T11:45:18.408Z,14.90
2018-05-12T11:46:18.416Z,14.20
2018-05-12T11:47:18.419Z,13.50
2018-05-12T11:48:18.424Z,13.70
2018-05-12T11:49:18.424Z,13.00
2018-05-12T11:50:18.430Z,14.00
2018-05-12T11:51:18.442Z,13.90
2018-05-12T11:52:18.443Z,13.60
2018-05-12T11:53:18.440Z,13.00
2018-05-12T11:54:18.445Z,12.70
2018-05-12T11:55:18.455Z,13.40
2018-05-12T11:56:18.460Z,13.00
2018-05-12T11:57:18.458Z,13.00
2018-05-12T11:58:18.481Z,12.10
2018-05-12T11:59:18.461Z,12.20
2018-05-12T12:00:18.467Z,12.20
2018-05-12T12:01:18.476Z,12.60
2018-05-12T12:02:18.475Z,12.70
2018-05-12T12:03:18.495Z,12.50
2018-05-12T12:04:18.482Z,12.90
2018-05-12T12:05:18.486Z,13.20
2018-05-12T12:06:18.492Z,13.30
2018-05-12T12:07:18.501Z,13.50
2018-05-12T12:08:18.497Z,13.50
2018-05-12T12:09:18.502Z,13.50
2018-05-12T12:10:18.511Z,14.70
2018-05-12T12:11:18.517Z,13.40
2018-05-12T12:12:18.513Z,14.80
2018-05-12T12:13:18.518Z,15.40
2018-05-12T12:14:18.524Z,15.50
2018-05-12T12:15:18.527Z,14.90
2018-05-12T12:16:18.533Z,15.50
2018-05-12T12:17:18.533Z,15.40
2018-05-12T12:18:18.539Z,14.80
2018-05-12T12:19:18.539Z,15.30
2018-05-12T12:20:18.546Z,14.80
2018-05-12T12:21:18.549Z,14.80
2018-05-12T12:22:18.571Z,13.80
2018-05-12T12:23:18.552Z,15.10
2018-05-12T12:24:18.560Z,15.50
2018-05-12T12:25:18.565Z,14.40
2018-05-12T12:26:18.571Z,13.00
2018-05-12T12:27:18.576Z,13.90
2018-05-12T12:28:18.574Z,13.40
2018-05-12T12:29:18.579Z,13.60
2018-05-12T12:30:18.585Z,12.90
2018-05-12T12:31:18.591Z,13.10
2018-05-12T12:32:18.589Z,13.20
2018-05-12T12:33:18.645Z,13.30
2018-05-12T12:34:18.601Z,12.90
2018-05-12T12:35:18.601Z,12.00
2018-05-12T12:36:18.609Z,12.10
2018-05-12T12:37:18.610Z,12.60
2018-05-12T12:38:18.613Z,12.30
2018-05-12T12:39:18.616Z,13.30
2018-05-12T12:40:18.621Z,14.00
2018-05-12T12:41:18.626Z,14.90
2018-05-12T12:42:18.627Z,13.80
2018-05-12T12:43:18.627Z,12.70
2018-05-12T12:44:18.634Z,13.00
2018-05-12T12:45:18.639Z,14.70
2018-05-12T12:46:18.644Z,14.80
2018-05-12T12:47:18.651Z,13.40
2018-05-12T12:48:18.650Z,13.90
2018-05-12T12:49:18.654Z,14.90
2018-05-12T12:50:18.659Z,13.70
2018-05-12T12:51:18.658Z,13.80
2018-05-12T12:52:18.663Z,13.70